Time;durP1;ratioP1;P1;durP2;ratioP2;P2;SDS_P1;SDS_P2;PMS_P1;PMS_P2;Temp;Humidity;BMP_temperature;BMP_pressure;BME280_temperature;BME280_humidity;BME280_pressure;Samples;Min_cycle;Max_cycle;Signal;HPM_P1;HPM_P2
2022/02/15 00:02:22;;;;;;;49.33;32.92;;;;;;;;;;4899129;29;20036;-83
2022/02/15 00:04:48;;;;;;;41.53;29.23;;;;;;;;;;4899385;29;20497;-83
2022/02/15 00:07:14;;;;;;;36.15;24.88;;;;;;;;;;4900265;29;20100;-83
2022/02/15 00:09:40;;;;;;;43.58;26.05;;;;;;;;;;4899156;29;20044;-83
2022/02/15 00:12:07;;;;;;;36.42;22.88;;;;;;;;;;4899059;29;20565;-93
2022/02/15 00:14:33;;;;;;;40.47;21.63;;;;;;;;;;4899102;29;20119;-83
2022/02/15 00:17:00;;;;;;;32.95;19.70;;;;;;;;;;4898994;29;20028;-83
2022/02/15 00:19:26;;;;;;;40.70;22.20;;;;;;;;;;4900198;29;20160;-93
2022/02/15 00:21:52;;;;;;;36.75;20.60;;;;;;;;;;4898881;29;20472;-94
2022/02/15 00:24:18;;;;;;;34.55;20.25;;;;;;;;;;4898925;29;20044;-93
2022/02/15 00:26:44;;;;;;;36.20;21.60;;;;;;;;;;4900331;29;20035;-83
2022/02/15 00:29:10;;;;;;;34.03;21.20;;;;;;;;;;4898790;29;20409;-84
2022/02/15 00:31:37;;;;;;;33.38;19.58;;;;;;;;;;4899279;29;20025;-93
2022/02/15 00:34:03;;;;;;;29.95;20.27;;;;;;;;;;4898565;29;20037;-83
2022/02/15 00:36:29;;;;;;;32.45;20.38;;;;;;;;;;4898541;29;20036;-83
2022/02/15 00:38:56;;;;;;;35.67;22.48;;;;;;;;;;4898303;29;20061;-83
2022/02/15 00:41:23;;;;;;;36.80;22.55;;;;;;;;;;4899843;29;20032;-93
2022/02/15 00:43:49;;;;;;;37.53;23.67;;;;;;;;;;4899652;29;20492;-83
2022/02/15 00:46:15;;;;;;;36.28;23.40;;;;;;;;;;4899495;29;20025;-83
2022/02/15 00:48:41;;;;;;;38.15;21.83;;;;;;;;;;4898444;29;20033;-83
2022/02/15 00:51:08;;;;;;;39.75;22.35;;;;;;;;;;4899578;29;20063;-94
2022/02/15 00:53:34;;;;;;;34.08;22.88;;;;;;;;;;4898416;29;20036;-83
2022/02/15 00:56:00;;;;;;;38.03;22.13;;;;;;;;;;4899205;29;20080;-92
2022/02/15 00:58:26;;;;;;;39.38;22.42;;;;;;;;;;4898409;29;20159;-83
2022/02/15 01:00:52;;;;;;;34.08;22.17;;;;;;;;;;4899363;29;20035;-83
2022/02/15 01:03:18;;;;;;;31.95;21.33;;;;;;;;;;4898340;29;20035;-90
2022/02/15 01:05:45;;;;;;;33.25;22.77;;;;;;;;;;4898220;29;20168;-94
2022/02/15 01:08:12;;;;;;;33.80;22.75;;;;;;;;;;4897803;29;20032;-83
2022/02/15 01:10:39;;;;;;;33.40;20.45;;;;;;;;;;4898270;29;20032;-83
2022/02/15 01:13:05;;;;;;;32.33;22.05;;;;;;;;;;4898211;29;20035;-95
2022/02/15 01:15:31;;;;;;;31.80;20.50;;;;;;;;;;4899157;29;20021;-83
2022/02/15 01:17:58;;;;;;;33.97;21.35;;;;;;;;;;4898004;29;20397;-83
2022/02/15 01:20:24;;;;;;;30.40;20.27;;;;;;;;;;4899327;29;20051;-83
2022/02/15 01:22:50;;;;;;;32.13;21.23;;;;;;;;;;4897974;29;20060;-83
2022/02/15 01:25:16;;;;;;;34.22;21.38;;;;;;;;;;4898007;29;20029;-94
2022/02/15 01:27:43;;;;;;;35.47;23.65;;;;;;;;;;4898898;29;20032;-94
2022/02/15 01:30:09;;;;;;;33.05;22.15;;;;;;;;;;4897743;29;20055;-86
2022/02/15 01:32:35;;;;;;;40.00;23.95;;;;;;;;;;4897828;29;20056;-94
2022/02/15 01:35:01;;;;;;;33.63;21.50;;;;;;;;;;4897849;29;20401;-94
2022/02/15 01:37:27;;;;;;;34.95;22.77;;;;;;;;;;4897844;29;20108;-95
2022/02/15 01:39:54;;;;;;;37.22;24.30;;;;;;;;;;4897685;29;20428;-83
2022/02/15 01:42:20;;;;;;;34.03;23.17;;;;;;;;;;4897797;29;20029;-93
2022/02/15 01:44:46;;;;;;;36.10;22.83;;;;;;;;;;4897671;29;20040;-83
2022/02/15 01:47:26;;;;;;;32.13;22.70;;;;;;;;;;4897638;29;20060;-94
2022/02/15 01:49:52;;;;;;;33.63;22.83;;;;;;;;;;4898661;29;20036;-83
2022/02/15 01:52:20;;;;;;;36.17;22.98;;;;;;;;;;4898725;29;20032;-93
2022/02/15 01:54:50;;;;;;;37.20;23.67;;;;;;;;;;4897696;29;20032;-84
2022/02/15 01:57:17;;;;;;;35.33;22.70;;;;;;;;;;4897553;29;20434;-83
2022/02/15 01:59:44;;;;;;;39.65;24.52;;;;;;;;;;4897510;29;20089;-94
2022/02/15 02:02:10;;;;;;;36.08;23.73;;;;;;;;;;4898715;29;20067;-87
2022/02/15 02:07:21;;;;;;;35.90;23.00;;;;;;;;;;4900979;29;20043;-83
2022/02/15 02:09:48;;;;;;;38.47;22.42;;;;;;;;;;4902421;29;20076;-94
2022/02/15 02:12:14;;;;;;;32.47;22.73;;;;;;;;;;4901355;29;20473;-83
2022/02/15 02:14:40;;;;;;;33.85;22.75;;;;;;;;;;4902472;29;20057;-90
2022/02/15 02:17:06;;;;;;;39.80;23.45;;;;;;;;;;4901099;29;20056;-83
2022/02/15 02:19:32;;;;;;;37.70;23.75;;;;;;;;;;4901083;29;20029;-84
2022/02/15 02:22:01;;;;;;;35.65;23.38;;;;;;;;;;4901117;29;20080;-83
2022/02/15 02:24:27;;;;;;;42.65;25.40;;;;;;;;;;4902505;29;20028;-82
2022/02/15 02:26:53;;;;;;;35.67;24.48;;;;;;;;;;4901047;29;20397;-86
2022/02/15 02:29:19;;;;;;;39.20;23.20;;;;;;;;;;4902155;29;20052;-83
2022/02/15 02:31:46;;;;;;;35.60;23.10;;;;;;;;;;4900978;29;20556;-94
2022/02/15 02:34:12;;;;;;;38.75;25.67;;;;;;;;;;4900941;29;20161;-83
2022/02/15 02:36:43;;;;;;;38.10;24.85;;;205.00;2252.80;;;;;;4902358;29;20088;-94
2022/02/15 02:39:08;;;;;;;41.53;24.40;;;204.80;2252.80;;;;;;4884797;29;20064;-83
2022/02/15 02:41:34;;;;;;;37.38;24.20;;;204.80;2252.80;;;;;;4902364;29;20039;-83
2022/02/15 02:44:00;;;;;;;40.92;24.75;;;180.10;2252.80;;;;;;4901739;29;20400;-90
2022/02/15 02:46:26;;;;;;;36.67;23.25;;;180.10;2252.80;;;;;;4885127;29;20079;-94
2022/02/15 02:48:52;;;;;;;39.30;23.80;;;180.10;2252.80;;;;;;4884910;29;20040;-83
2022/02/15 02:51:18;;;;;;;36.67;23.00;;;180.00;2252.80;;;;;;4885106;29;20036;-84
2022/02/15 02:53:44;;;;;;;36.22;23.23;;;;;;;;;;4901871;29;20055;-93
2022/02/15 02:56:10;;;;;;;35.35;24.25;;;;;;;;;;4900626;29;20028;-84
2022/02/15 02:58:36;;;;;;;30.42;21.10;;;;;;;;;;4900560;29;20039;-94
2022/02/15 03:01:03;;;;;;;32.95;22.02;;;;;;;;;;4901534;29;20474;-91
2022/02/15 03:03:29;;;;;;;34.03;22.45;;;;;;;;;;4900465;29;20068;-83
2022/02/15 03:05:55;;;;;;;32.28;21.77;;;;;;;;;;4900352;29;20036;-84
2022/02/15 03:08:22;;;;;;;32.50;21.85;;;;;;;;;;4901573;29;20504;-93
2022/02/15 03:10:48;;;;;;;37.92;23.20;;;;;;;;;;4901403;29;20029;-94
2022/02/15 03:13:14;;;;;;;40.22;24.60;;;;;;;;;;4900251;29;20561;-83
2022/02/15 03:15:40;;;;;;;38.13;23.88;;;;;;;;;;4901695;29;20085;-92
2022/02/15 03:18:06;;;;;;;39.13;23.63;;;;;;;;;;4900958;29;20029;-95
2022/02/15 03:20:33;;;;;;;33.53;22.83;;;;;;;;;;4900487;29;20474;-94
2022/02/15 03:22:58;;;;;;;36.55;22.38;;;179.90;2252.80;;;;;;4900078;29;20080;-88
2022/02/15 03:25:24;;;;;;;32.67;21.38;;;179.80;2252.80;;;;;;4884284;29;20040;-83
2022/02/15 03:27:50;;;;;;;32.42;21.77;;;179.80;2252.80;;;;;;4899897;29;20477;-84
2022/02/15 03:30:16;;;;;;;33.70;22.58;;;179.60;2252.80;;;;;;4884100;29;20127;-92
2022/02/15 03:32:42;;;;;;;33.60;21.70;;;179.60;2252.80;;;;;;4884243;29;20031;-83
2022/02/15 03:35:08;;;;;;;33.05;21.80;;;179.60;2252.80;;;;;;4900948;29;20048;-94
2022/02/15 03:37:34;;;;;;;42.55;25.85;;;179.60;2252.80;;;;;;4884125;29;20031;-83
2022/02/15 03:40:00;;;;;;;50.63;32.58;;;179.60;2252.80;;;;;;4900827;29;20044;-84
2022/02/15 03:45:10;;;;;;;47.80;32.92;;;179.70;2252.80;;;;;;4901454;29;20085;-83
2022/02/15 03:47:36;;;;;;;40.30;29.83;;;179.70;2252.80;;;;;;4900789;29;20033;-94
2022/02/15 03:50:02;;;;;;;44.50;29.73;;;179.70;2252.80;;;;;;4900681;29;20115;-84
2022/02/15 03:52:28;;;;;;;43.78;29.70;;;179.70;2252.80;;;;;;4883753;29;20032;-84
2022/02/15 03:54:54;;;;;;;38.60;25.90;;;179.80;2252.80;;;;;;4884062;29;20139;-84
2022/02/15 03:57:20;;;;;;;38.83;25.58;;;179.70;2252.80;;;;;;4900884;29;20029;-93
2022/02/15 03:59:46;;;;;;;34.10;22.77;;;179.70;2252.80;;;;;;4883844;29;20037;-94
2022/02/15 04:02:12;;;;;;;38.58;23.63;;;179.80;2252.80;;;;;;4883447;29;20033;-84
2022/02/15 04:04:37;;;;;;;32.83;22.70;;;179.80;2252.80;;;;;;4883748;29;20060;-84
2022/02/15 04:07:03;;;;;;;33.80;23.17;;;179.70;2252.80;;;;;;4883441;29;20512;-84
2022/02/15 04:09:29;;;;;;;36.03;23.17;;;179.80;2252.80;;;;;;4899860;29;20527;-83
2022/02/15 04:11:55;;;;;;;34.05;22.02;;;179.80;2252.80;;;;;;4900466;29;20099;-83
2022/02/15 04:14:21;;;;;;;35.35;23.25;;;179.80;2252.80;;;;;;4883650;29;20040;-84
2022/02/15 04:16:47;;;;;;;37.67;22.65;;;179.80;2252.80;;;;;;4883396;29;20029;-83
2022/02/15 04:19:13;;;;;;;35.88;21.88;;;179.80;2252.80;;;;;;4900227;29;20420;-84
2022/02/15 04:21:39;;;;;;;34.30;20.77;;;179.80;2252.80;;;;;;4883540;29;20203;-90
2022/02/15 04:24:05;;;;;;;31.73;22.23;;;179.80;2252.80;;;;;;4883302;29;20025;-84
2022/02/15 04:26:31;;;;;;;30.98;20.42;;;179.90;2252.80;;;;;;4883506;29;20032;-84
2022/02/15 04:28:57;;;;;;;30.85;21.10;;;179.80;2252.80;;;;;;4899553;29;20045;-84
2022/02/15 04:31:22;;;;;;;31.17;22.05;;;179.80;2252.80;;;;;;4883039;29;20092;-95
2022/02/15 04:33:48;;;;;;;32.15;21.35;;;179.80;2252.80;;;;;;4883279;29;20043;-91
2022/02/15 04:36:14;;;;;;;33.50;21.23;;;179.80;2252.80;;;;;;4900027;29;20029;-93
2022/02/15 04:38:40;;;;;;;31.38;21.02;;;179.80;2252.80;;;;;;4882690;29;20048;-94
2022/02/15 04:41:06;;;;;;;29.88;20.52;;;179.80;2252.80;;;;;;4899700;29;20029;-94
2022/02/15 04:43:33;;;;;;;33.92;20.38;;;179.80;2252.80;;;;;;4899364;29;20032;-95
2022/02/15 04:45:59;;;;;;;29.10;19.98;;;179.90;2252.80;;;;;;4900101;29;20029;-86
2022/02/15 04:48:24;;;;;;;28.50;19.10;;;179.90;2252.80;;;;;;4899641;29;20029;-95
2022/02/15 04:50:50;;;;;;;30.30;19.58;;;179.80;2252.80;;;;;;4882871;29;20039;-83
2022/02/15 04:53:16;;;;;;;29.88;20.45;;;179.80;2252.80;;;;;;4882822;29;20063;-84
2022/02/15 04:55:42;;;;;;;29.35;19.27;;;179.90;2252.80;;;;;;4882973;29;20482;-94
2022/02/15 04:58:08;;;;;;;30.77;19.58;;;179.90;2252.80;;;;;;4882774;29;20133;-91
2022/02/15 05:00:35;;;;;;;29.75;20.15;;;179.90;2252.80;;;;;;4882769;29;20024;-84
2022/02/15 05:03:01;;;;;;;33.78;21.15;;;179.80;2252.80;;;;;;4882868;29;20037;-93
2022/02/15 05:05:26;;;;;;;32.10;20.80;;;179.80;2252.80;;;;;;4890592;29;20032;-83
2022/02/15 05:07:52;;;;;;;33.55;21.83;;;179.80;2252.80;;;;;;4918375;29;20162;-84
2022/02/15 05:10:18;;;;;;;37.33;22.80;;;179.80;2252.80;;;;;;4918215;29;20072;-84
2022/02/15 05:12:44;;;;;;;39.25;20.48;;;179.80;2252.80;;;;;;4918178;29;20469;-83
2022/02/15 05:15:10;;;;;;;27.70;18.90;;;179.80;2252.80;;;;;;4901552;29;20131;-84
2022/02/15 05:17:43;;;;;;;29.15;19.92;;;179.80;2252.80;;;;;;4901301;29;20028;-93
2022/02/15 05:20:11;;;;;;;33.88;20.02;;;179.90;2252.80;;;;;;4901155;29;20140;-84
2022/02/15 05:22:38;;;;;;;32.47;20.67;;;179.90;2252.80;;;;;;4901013;29;20040;-83
2022/02/15 05:25:04;;;;;;;33.47;21.30;;;179.90;2252.80;;;;;;4900984;29;20064;-95
2022/02/15 05:27:30;;;;;;;35.67;22.40;;;179.80;2252.80;;;;;;4900988;29;20070;-84
2022/02/15 05:29:56;;;;;;;35.67;22.83;;;179.80;2252.80;;;;;;4917755;29;20068;-84
2022/02/15 05:32:22;;;;;;;31.60;21.67;;;179.80;2252.80;;;;;;4917835;29;20047;-83
2022/02/15 05:34:48;;;;;;;37.97;23.00;;;179.80;2252.80;;;;;;4917833;29;20111;-84
2022/02/15 05:37:14;;;;;;;42.20;23.65;;;179.70;2252.80;;;;;;4901041;29;20123;-93
2022/02/15 05:39:40;;;;;;;33.72;23.40;;;179.70;2252.80;;;;;;4897501;29;20139;-84
2022/02/15 05:42:07;;;;;;;34.78;22.65;;;179.60;2252.80;;;;;;4917915;29;20024;-94
2022/02/15 05:44:32;;;;;;;36.70;22.42;;;179.60;2252.80;;;;;;4901048;29;20028;-94
2022/02/15 05:46:58;;;;;;;36.40;21.77;;;179.60;2252.80;;;;;;4936632;29;20061;-84
2022/02/15 05:49:24;;;;;;;35.50;22.52;;;179.70;2252.80;;;;;;4919770;29;20091;-94
2022/02/15 05:51:50;;;;;;;36.25;22.77;;;179.70;2252.80;;;;;;4936636;29;20106;-84
2022/02/15 05:54:16;;;;;;;37.00;23.27;;;179.70;2252.80;;;;;;4921011;29;20036;-83
2022/02/15 05:56:42;;;;;;;34.97;23.10;;;179.70;2252.80;;;;;;4919681;29;20024;-83
2022/02/15 05:59:08;;;;;;;40.50;23.00;;;179.70;2252.80;;;;;;4919894;29;20036;-93
2022/02/15 06:01:34;;;;;;;38.90;25.58;;;179.80;2252.80;;;;;;4919614;29;20118;-82
2022/02/15 06:04:12;;;;;;;40.13;24.30;;;179.60;2252.80;;;;;;4936961;29;20028;-85
2022/02/15 06:06:41;;;;;;;35.92;21.83;;;179.70;2252.80;;;;;;4920159;29;20464;-82
2022/02/15 06:09:08;;;;;;;33.78;21.20;;;179.60;2252.80;;;;;;4913957;29;20089;-89
2022/02/15 06:11:34;;;;;;;31.80;22.17;;;179.50;2252.80;;;;;;4919542;29;20024;-92
2022/02/15 06:14:00;;;;;;;34.78;22.30;;;179.60;2252.80;;;;;;4919942;29;20083;-90
2022/02/15 06:16:26;;;;;;;32.58;21.20;;;179.50;2252.80;;;;;;4936004;29;20032;-92
2022/02/15 06:18:56;;;;;;;36.60;23.67;;;179.40;2252.80;;;;;;4910151;29;20083;-85
2022/02/15 06:21:24;;;;;;;36.40;23.30;;;179.50;2252.80;;;;;;4904137;29;20028;-84
2022/02/15 06:23:50;;;;;;;35.50;22.48;;;179.50;2252.80;;;;;;4920513;29;20388;-91
2022/02/15 06:26:16;;;;;;;44.30;23.17;;;179.50;2252.80;;;;;;4901434;29;20107;-82
2022/02/15 06:28:42;;;;;;;38.10;23.05;;;179.50;2252.80;;;;;;4936556;29;20103;-86
2022/02/15 06:31:09;;;;;;;42.85;25.15;;;179.60;2252.80;;;;;;4910638;29;20485;-84
2022/02/15 06:33:35;;;;;;;37.97;22.77;;;179.60;2252.80;;;;;;4917223;29;20036;-83
2022/02/15 06:36:03;;;;;;;51.10;29.30;;;179.60;2252.80;;;;;;4900540;29;20032;-83
2022/02/15 06:38:29;;;;;;;48.45;28.27;;;179.60;2252.80;;;;;;4913762;29;20048;-83
2022/02/15 06:40:55;;;;;;;56.08;30.10;;;179.60;2252.80;;;;;;4924525;29;20032;-87
2022/02/15 06:43:21;;;;;;;46.90;27.83;;;179.60;2252.80;;;;;;4917085;29;20464;-91
2022/02/15 06:45:46;;;;;;;38.55;23.80;;;179.70;2252.80;;;;;;4908129;29;20029;-83
2022/02/15 06:48:12;;;;;;;37.33;22.95;;;179.70;2252.80;;;;;;4925170;29;20035;-83
2022/02/15 06:50:39;;;;;;;37.33;23.80;;;179.70;2252.80;;;;;;4918765;29;20043;-89
2022/02/15 06:53:05;;;;;;;36.17;24.00;;;179.80;2252.80;;;;;;4904928;29;20366;-83
2022/02/15 06:55:31;;;;;;;41.78;25.73;;;179.80;2252.80;;;;;;4913424;29;20033;-83
2022/02/15 06:57:57;;;;;;;45.30;26.15;;;179.80;2252.80;;;;;;4910325;29;20054;-83
2022/02/15 07:00:23;;;;;;;45.20;26.35;;;179.80;2252.80;;;;;;4908004;29;20024;-83
2022/02/15 07:02:49;;;;;;;43.08;25.25;;;179.90;2252.80;;;;;;4910664;29;20032;-83
2022/02/15 07:05:14;;;;;;;42.15;24.88;;;179.90;2252.80;;;;;;4928375;29;20080;-90
2022/02/15 07:07:40;;;;;;;39.95;23.92;;;179.90;2252.80;;;;;;4916582;29;20024;-84
2022/02/15 07:10:08;;;;;;;40.50;23.60;;;180.00;2252.80;;;;;;4932464;29;20115;-89
2022/02/15 07:12:36;;;;;;;35.78;23.38;;;180.00;2252.80;;;;;;4903759;29;20025;-86
2022/02/15 07:15:02;;;;;;;40.25;25.08;;;180.00;2252.80;;;;;;4899505;29;20032;-87
2022/02/15 07:17:28;;;;;;;45.90;26.10;;;180.10;2252.80;;;;;;4903103;29;20406;-84
2022/02/15 07:19:54;;;;;;;49.35;26.42;;;204.80;2252.80;;;;;;4903097;29;20036;-83
2022/02/15 07:22:20;;;;;;;37.13;23.30;;;204.80;2252.80;;;;;;4903332;29;20032;-84
2022/02/15 07:24:46;;;;;;;46.38;25.55;;;204.80;2252.80;;;;;;4903170;29;20052;-85
2022/02/15 07:27:12;;;;;;;39.92;24.48;;;204.80;2252.80;;;;;;4903241;29;20063;-83
2022/02/15 07:29:38;;;;;;;45.03;25.98;;;204.90;2252.80;;;;;;4908025;29;20224;-84
2022/02/15 07:32:05;;;;;;;52.60;28.05;;;205.00;2252.80;;;;;;4938745;29;20023;-82
2022/02/15 07:34:30;;;;;;;72.03;36.72;;;205.10;2252.80;;;;;;4921653;29;20031;-83
2022/02/15 07:36:56;;;;;;;53.15;29.20;;;205.20;2252.80;;;;;;4938742;29;20362;-82
2022/02/15 07:39:22;;;;;;;54.33;29.70;;;205.20;2252.80;;;;;;4921307;29;20082;-85
2022/02/15 07:41:49;;;;;;;44.92;24.10;;;205.30;2252.80;;;;;;4921711;29;20083;-84
2022/02/15 07:44:16;;;;;;;34.00;20.77;;;205.30;2252.80;;;;;;4938308;29;20034;-82
2022/02/15 07:46:44;;;;;;;42.72;25.50;;;205.40;2252.80;;;;;;4938461;29;20028;-90
2022/02/15 07:49:10;;;;;;;40.38;23.70;;;205.40;2252.80;;;;;;4921176;29;20035;-82
2022/02/15 07:51:36;;;;;;;39.80;23.42;;;205.40;2252.80;;;;;;4938338;29;20082;-83
2022/02/15 07:54:02;;;;;;;39.35;23.35;;;205.50;2252.80;;;;;;4921395;29;20480;-83
2022/02/15 07:56:28;;;;;;;36.78;24.08;;;205.50;2252.80;;;;;;4938597;29;20110;-83
2022/02/15 07:58:54;;;;;;;35.90;22.58;;;205.50;2252.80;;;;;;4938077;29;20115;-83
2022/02/15 08:01:20;;;;;;;34.63;21.13;;;205.50;2252.80;;;;;;4938175;29;20028;-83
2022/02/15 08:03:46;;;;;;;37.42;21.15;;;205.60;2252.80;;;;;;4938362;29;20031;-85
2022/02/15 08:06:11;;;;;;;40.53;22.80;;;205.70;2252.80;;;;;;4937282;29;20030;-83
2022/02/15 08:08:37;;;;;;;34.40;22.35;;;230.50;2252.80;;;;;;4920294;29;20044;-83
2022/02/15 08:11:03;;;;;;;35.13;23.02;;;230.60;2252.80;;;;;;4920406;29;20024;-83
2022/02/15 08:13:39;;;;;;;36.72;23.40;;;230.80;2252.80;;;;;;4920972;29;20078;-96
2022/02/15 08:16:06;;;;;;;42.03;25.30;;;;;;;;;;4921109;29;20027;-83
2022/02/15 08:18:32;;;;;;;45.05;25.15;;;;;;;;;;4920535;29;20535;-82
2022/02/15 08:20:58;;;;;;;39.55;25.13;;;231.20;2252.80;;;;;;4920353;29;20028;-81
2022/02/15 08:23:24;;;;;;;50.33;26.35;;;231.20;2252.80;;;;;;4920527;29;20062;-83
2022/02/15 08:25:54;;;;;;;52.97;29.38;;;231.30;2252.80;;;;;;4931702;29;20055;-83
2022/02/15 08:28:21;;;;;;;47.42;29.45;;;231.30;2252.80;;;;;;4901741;29;20107;-84
2022/02/15 08:30:47;;;;;;;45.90;29.50;;;256.00;2252.80;;;;;;4920484;29;20031;-82
2022/02/15 08:33:13;;;;;;;48.88;30.35;;;256.10;2252.80;;;;;;4920365;29;20499;-89
2022/02/15 08:35:39;;;;;;;45.83;29.95;;;256.60;2252.80;;;;;;4934980;29;20048;-91
2022/02/15 08:38:05;;;;;;;41.65;27.52;;;281.70;2278.40;;;;;;4916362;29;20161;-83
2022/02/15 08:40:31;;;;;;;44.47;27.98;;;281.70;2278.40;;;;;;4882872;29;20127;-83
2022/02/15 08:42:57;;;;;;;46.15;28.48;;;281.60;2278.40;;;;;;4900299;29;20109;-93
2022/02/15 08:45:23;;;;;;;44.20;28.23;;;281.70;2278.40;;;;;;4883254;29;20024;-91
2022/02/15 08:47:49;;;;;;;50.92;30.20;;;282.10;2278.40;;;;;;4899245;29;20120;-83
2022/02/15 08:50:16;;;;;;;36.28;23.13;;;282.50;2278.40;;;;;;4882561;29;20044;-91
2022/02/15 08:52:42;;;;;;;38.97;21.98;;;333.00;2252.80;;;;;;4899469;29;20033;-83
2022/02/15 08:55:09;;;;;;;38.05;25.00;;;;;;;;;;4882916;29;20032;-84
2022/02/15 08:57:35;;;;;;;36.95;22.48;;;461.50;1612.80;;;;;;4899167;29;20150;-82
2022/02/15 09:00:02;;;;;;;30.92;19.83;;;461.50;1612.80;;;;;;4882667;29;20040;-93
2022/02/15 09:02:30;;;;;;;28.15;19.90;;;;;;;;;;4882318;29;20029;-84
2022/02/15 09:04:56;;;;;;;26.63;19.48;;;;;;;;;;4882677;29;20100;-82
2022/02/15 09:07:22;;;;;;;24.23;17.90;;;;;;;;;;4882692;29;20024;-85
2022/02/15 09:09:49;;;;;;;26.15;18.55;;;563.90;1203.20;;;;;;4899451;29;20043;-92
2022/02/15 09:12:15;;;;;;;26.30;18.30;;;589.10;1126.40;;;;;;4898952;29;20360;-90
2022/02/15 09:14:41;;;;;;;21.58;16.25;;;614.70;1100.80;;;;;;4898757;29;20027;-89
2022/02/15 09:17:07;;;;;;;25.60;18.92;;;640.10;1177.60;;;;;;4898541;29;20028;-90
2022/02/15 09:19:34;;;;;;;23.30;16.23;;;640.50;1024.00;;;;;;4881079;29;20035;-81
2022/02/15 09:22:00;;;;;;;21.35;14.43;;;640.70;1024.00;;;;;;4880652;29;20025;-86
2022/02/15 09:24:27;;;;;;;24.92;16.35;;;666.40;998.40;;;;;;4882014;29;20091;-81
2022/02/15 09:26:53;;;;;;;19.95;13.65;;;691.70;947.20;;;;;;4881534;29;20112;-84
2022/02/15 09:29:19;;;;;;;21.25;14.40;;;716.80;947.20;;;;;;4868051;29;20053;-84
2022/02/15 09:31:45;;;;;;;19.52;13.63;;;717.20;896.00;;;;;;4863354;29;20065;-83
2022/02/15 09:34:11;;;;;;;21.75;15.10;;;742.60;870.40;;;;;;4879832;29;20117;-85
2022/02/15 09:36:38;;;;;;;15.80;10.00;;;742.40;870.40;;;;;;4863025;29;20114;-83
2022/02/15 09:39:06;;;;;;;18.23;11.05;;;742.70;819.20;;;;;;4879411;29;20045;-83
2022/02/15 09:41:35;;;;;;;16.20;11.02;;;742.50;844.80;;;;;;4862267;29;20029;-83
2022/02/15 09:44:05;;;;;;;17.20;10.73;;;742.90;819.20;;;;;;4862654;29;20120;-83
2022/02/15 09:46:32;;;;;;;15.32;8.68;;;768.00;819.20;;;;;;4862846;29;20021;-83
2022/02/15 09:49:01;;;;;;;14.40;10.35;;;743.10;819.20;;;;;;4862883;29;20139;-84
2022/02/15 09:51:28;;;;;;;12.23;7.80;;;743.20;819.20;;;;;;4861933;29;20025;-83
2022/02/15 09:53:54;;;;;;;12.50;6.95;;;743.00;819.20;;;;;;4878933;29;20021;-83
2022/02/15 09:56:20;;;;;;;14.07;6.88;;;743.10;819.20;;;;;;4879405;29;20032;-83
2022/02/15 09:58:47;;;;;;;10.38;6.13;;;743.10;793.60;;;;;;4869789;29;20043;-84
2022/02/15 10:01:14;;;;;;;10.13;7.85;;;768.00;793.60;;;;;;4883062;29;20078;-84
2022/02/15 10:03:58;;;;;;;11.18;8.10;;;793.80;793.60;;;;;;4881357;29;20035;-85
2022/02/15 10:06:29;;;;;;;8.10;4.20;;;819.70;793.60;;;;;;4898311;29;20053;-90
2022/02/15 10:08:59;;;;;;;7.70;4.40;;;768.20;768.00;;;;;;4881633;29;20089;-86
2022/02/15 10:11:40;;;;;;;7.53;4.60;;;768.80;742.40;;;;;;4880706;29;20052;-83
2022/02/15 10:14:07;;;;;;;7.15;4.30;;;768.70;742.40;;;;;;4897080;29;20024;-84
2022/02/15 10:16:48;;;;;;;6.63;4.75;;;742.70;819.20;;;;;;4896854;29;20099;-82
2022/02/15 10:19:29;;;;;;;7.90;4.43;;;768.20;768.00;;;;;;4880441;29;20028;-82
2022/02/15 10:21:56;;;;;;;9.90;4.13;;;819.20;716.80;;;;;;4880541;29;20036;-85
2022/02/15 10:24:23;;;;;;;7.47;3.38;;;743.20;768.00;;;;;;4879869;29;20024;-82
2022/02/15 10:27:03;;;;;;;6.13;3.88;;;768.20;742.40;;;;;;4880558;29;20033;-83
2022/02/15 10:29:30;;;;;;;8.27;3.38;;;768.20;716.80;;;;;;4901143;29;20136;-85
2022/02/15 10:32:04;;;;;;;8.82;3.58;;;716.90;793.60;;;;;;4884245;29;20056;-84
2022/02/15 10:34:30;;;;;;;4.45;2.50;;;692.00;768.00;;;;;;4900674;29;20040;-83
2022/02/15 10:37:05;;;;;;;5.75;2.92;;;691.50;793.60;;;;;;4901072;29;20029;-84
2022/02/15 10:39:36;;;;;;;6.13;3.22;;;666.50;793.60;;;;;;4895614;29;20053;-84
2022/02/15 10:42:21;;;;;;;7.40;3.72;;;666.10;819.20;;;;;;4902176;29;20400;-83
2022/02/15 10:45:02;;;;;;;10.93;5.10;;;640.50;844.80;;;;;;4903316;29;20024;-83
2022/02/15 10:47:30;;;;;;;3.53;2.10;;;640.80;819.20;;;;;;4903239;29;20028;-83
2022/02/15 10:49:58;;;;;;;6.53;2.50;;;666.00;819.20;;;;;;4920065;29;20087;-83
2022/02/15 10:52:25;;;;;;;16.17;8.13;;;691.20;793.60;;;;;;4920012;29;20027;-83
2022/02/15 10:54:51;;;;;;;22.08;14.60;;;742.40;819.20;;;;;;4920147;29;20107;-84
2022/02/15 10:57:18;;;;;;;5.57;3.33;;;742.50;793.60;;;;;;4903283;29;20426;-84
2022/02/15 10:59:47;;;;;;;6.05;2.40;;;691.60;768.00;;;;;;4903184;29;20028;-84
2022/02/15 11:02:23;;;;;;;8.48;2.45;;;691.70;742.40;;;;;;4903152;29;20020;-84
2022/02/15 11:04:50;;;;;;;7.43;3.63;;;666.10;793.60;;;;;;4903045;29;20135;-84
2022/02/15 11:07:18;;;;;;;8.77;3.83;;;640.00;844.80;;;;;;4920046;29;20028;-81
2022/02/15 11:10:29;;;;;;;6.50;3.50;;;640.10;844.80;;;;;;4902544;29;20500;-81
2022/02/15 11:12:57;;;;;;;8.68;3.55;;;640.60;819.20;;;;;;4902624;29;20511;-81
2022/02/15 11:15:26;;;;;;;9.32;3.08;;;640.60;819.20;;;;;;4902537;29;20048;-83
2022/02/15 11:17:57;;;;;;;12.40;5.10;;;665.70;819.20;;;;;;4902839;29;20046;-82
2022/02/15 11:20:27;;;;;;;11.80;6.78;;;;;;;;;;4920223;29;20024;-84
2022/02/15 11:22:55;;;;;;;25.02;16.83;;;589.00;921.60;;;;;;4920097;29;20024;-87
2022/02/15 11:25:32;;;;;;;5.07;2.70;;;614.40;870.40;;;;;;4881499;29;20120;-87
2022/02/15 11:28:13;;;;;;;10.65;6.32;;;589.50;870.40;;;;;;4887230;29;20032;-89
2022/02/15 11:30:51;;;;;;;8.43;4.15;;;563.50;947.20;;;;;;4881546;29;20131;-88
2022/02/15 11:33:30;;;;;;;5.30;2.67;;;512.90;972.80;;;;;;4865021;29;20116;-87
2022/02/15 11:36:06;;;;;;;4.07;2.00;;;512.40;1049.60;;;;;;4881375;29;20402;-88
2022/02/15 11:38:33;;;;;;;27.25;16.98;;;512.20;1075.20;;;;;;4863585;29;20053;-88
2022/02/15 11:41:12;;;;;;;9.23;4.60;;;512.00;1049.60;;;;;;4881886;29;20412;-87
2022/02/15 11:43:38;;;;;;;44.40;31.58;;;512.00;1049.60;;;;;;4865365;29;20136;-86
2022/02/15 11:46:05;;;;;;;27.00;20.17;;;512.10;1075.20;;;;;;4865652;29;20029;-86
2022/02/15 11:48:41;;;;;;;15.40;9.25;;;487.30;1100.80;;;;;;4865786;29;20466;-86
2022/02/15 11:51:20;;;;;;;8.25;2.83;;;487.20;1126.40;;;;;;4882292;29;20037;-86
2022/02/15 11:53:48;;;;;;;10.05;2.80;;;487.10;1075.20;;;;;;4865313;29;20364;-85
2022/02/15 11:56:15;;;;;;;6.22;3.30;;;487.20;1049.60;;;;;;4865343;29;20089;-85
2022/02/15 11:58:49;;;;;;;25.55;13.40;;;512.00;1075.20;;;;;;4865485;29;20082;-86
2022/02/15 12:01:29;;;;;;;7.65;2.97;;;487.20;1049.60;;;;;;4879276;29;20108;-85
2022/02/15 12:03:57;;;;;;;7.05;3.15;;;487.00;1100.80;;;;;;4881402;29;20040;-85
2022/02/15 12:06:39;;;;;;;9.88;4.13;;;487.00;1075.20;;;;;;4881810;29;20032;-85
2022/02/15 12:09:08;;;;;;;21.35;12.52;;;486.90;1126.40;;;;;;4865310;29;20037;-85
2022/02/15 12:11:41;;;;;;;34.40;22.15;;;486.80;1100.80;;;;;;4865031;29;20081;-85
2022/02/15 12:14:15;;;;;;;6.13;2.38;;;487.00;1100.80;;;;;;4881097;29;20505;-85
2022/02/15 12:16:52;;;;;;;6.05;2.58;;;486.70;1100.80;;;;;;4881401;29;20127;-85
2022/02/15 12:19:30;;;;;;;16.33;9.95;;;486.90;1075.20;;;;;;4865075;29;20032;-85
2022/02/15 12:21:59;;;;;;;21.27;13.50;;;512.70;1024.00;;;;;;4881658;29;20044;-85
2022/02/15 12:24:26;;;;;;;12.48;5.03;;;615.20;844.80;;;;;;4864393;29;20040;-85
2022/02/15 12:26:54;;;;;;;9.57;3.95;;;589.70;896.00;;;;;;4881102;29;20030;-85
2022/02/15 12:29:20;;;;;;;10.40;4.45;;;691.20;793.60;;;;;;4864389;29;20074;-85
2022/02/15 12:31:51;;;;;;;11.05;4.80;;;742.70;742.40;;;;;;4886899;29;20168;-85
2022/02/15 12:34:17;;;;;;;18.42;10.98;;;742.50;768.00;;;;;;4882765;29;20029;-85
2022/02/15 12:36:44;;;;;;;7.10;3.45;;;717.00;793.60;;;;;;4882994;29;20047;-85
2022/02/15 12:39:10;;;;;;;4.32;2.17;;;742.40;793.60;;;;;;4893039;29;20055;-86
2022/02/15 12:41:40;;;;;;;7.82;2.90;;;716.90;742.40;;;;;;4901615;29;20024;-85
2022/02/15 12:44:06;;;;;;;3.92;2.40;;;640.90;768.00;;;;;;4918643;29;20453;-85